Costa Marques, Brazil
Current Conditions -  °F | °C
As of 7:00 PM on Saturday 25 Oct 2014 (Local Time) from SLSA Reporting Station
Scattered Clouds Scattered Clouds  
Wind Chill: 88°   Ceiling: Unl
Heat Index: 93°   Visibility: 6mi
Dew Point: 70°   Wind: 0mph
Humidity: 55%   Direction: NA
Pressure: 29.71"   Gusts: NA
Location:  12.45°S, 64.23°W
Report Text: SLSA 252300Z 00000KT 9999 SCT020 31/21 Q1006
Loading
Personal Weather Stations






























Interactive Weather Map
Tropical Storm Tracking
New forecast layout! Learn more

10-Day Weather Forecast

Advertisements
Track Severe Weather on mobile